createdAt,value
2023-02-06T00:02:18.173Z,1.80
2023-02-06T00:05:19.924Z,1.70
2023-02-06T00:08:21.919Z,1.70
2023-02-06T00:11:24.245Z,1.70
2023-02-06T00:14:25.933Z,1.70
2023-02-06T00:17:27.701Z,1.70
2023-02-06T00:20:29.390Z,1.70
2023-02-06T00:23:33.565Z,1.70
2023-02-06T00:26:35.249Z,1.80
2023-02-06T00:29:36.970Z,1.80
2023-02-06T00:32:38.793Z,1.80
2023-02-06T00:35:40.649Z,1.80
2023-02-06T00:38:42.386Z,1.80
2023-02-06T00:41:44.365Z,1.90
2023-02-06T00:44:46.048Z,1.90
2023-02-06T00:48:35.512Z,1.90
2023-02-06T00:51:38.807Z,1.80
2023-02-06T00:54:40.464Z,1.80
2023-02-06T00:57:42.238Z,1.80
2023-02-06T01:00:44.446Z,1.70
2023-02-06T01:03:46.147Z,1.70
2023-02-06T01:06:47.818Z,1.70
2023-02-06T01:09:49.462Z,1.70
2023-02-06T01:12:51.301Z,1.70
2023-02-06T01:15:52.992Z,1.70
2023-02-06T01:18:54.773Z,1.70
2023-02-06T01:21:56.448Z,1.70
2023-02-06T01:24:58.079Z,1.70
2023-02-06T01:27:59.823Z,1.80
2023-02-06T01:31:01.601Z,1.70
2023-02-06T01:34:03.441Z,1.80
2023-02-06T01:37:05.116Z,1.90
2023-02-06T01:40:11.519Z,1.90
2023-02-06T01:43:18.096Z,1.90
2023-02-06T01:46:19.799Z,1.90
2023-02-06T01:49:27.429Z,1.90
2023-02-06T01:52:31.845Z,1.90
2023-02-06T01:55:36.854Z,1.90
2023-02-06T01:58:44.657Z,1.90
2023-02-06T02:01:46.535Z,1.90
2023-02-06T02:04:48.852Z,1.80
2023-02-06T02:08:00.979Z,1.80
2023-02-06T02:11:05.339Z,1.80
2023-02-06T02:14:10.082Z,1.80
2023-02-06T02:17:25.520Z,1.80
2023-02-06T02:20:58.611Z,1.80
2023-02-06T02:24:32.481Z,1.80
2023-02-06T02:27:52.283Z,1.80
2023-02-06T02:31:19.068Z,1.90
2023-02-06T02:35:06.192Z,1.80
2023-02-06T02:38:29.004Z,1.90
2023-02-06T02:41:47.165Z,1.90
2023-02-06T02:45:19.092Z,1.90
2023-02-06T02:48:26.354Z,1.90
2023-02-06T02:51:28.121Z,1.90
2023-02-06T02:54:29.973Z,1.90
2023-02-06T02:57:59.817Z,1.80
2023-02-06T03:01:07.424Z,1.80
2023-02-06T03:04:16.256Z,1.80
2023-02-06T03:07:48.851Z,1.80
2023-02-06T03:11:22.704Z,1.80
2023-02-06T03:14:40.711Z,1.80
2023-02-06T03:18:11.680Z,1.80
2023-02-06T03:21:23.514Z,1.90
2023-02-06T03:25:03.651Z,1.80
2023-02-06T03:28:13.608Z,1.80
2023-02-06T03:31:20.574Z,1.80
2023-02-06T03:34:41.672Z,1.80
2023-02-06T03:37:43.690Z,1.80
2023-02-06T03:40:48.402Z,1.80
2023-02-06T03:43:51.027Z,1.80
2023-02-06T03:46:55.040Z,1.80
2023-02-06T03:50:00.390Z,1.80
2023-02-06T03:53:04.093Z,1.80
2023-02-06T03:56:15.910Z,1.80
2023-02-06T03:59:17.728Z,1.80
2023-02-06T04:02:21.480Z,1.80
2023-02-06T04:05:23.581Z,1.80
2023-02-06T04:08:25.322Z,1.80
2023-02-06T04:11:26.989Z,1.80
2023-02-06T04:14:28.644Z,1.80
2023-02-06T04:17:46.481Z,1.80
2023-02-06T04:20:53.119Z,1.80
2023-02-06T04:23:54.868Z,1.80
2023-02-06T04:26:56.542Z,1.80
2023-02-06T04:29:59.477Z,1.80
2023-02-06T04:33:03.951Z,1.80
2023-02-06T04:36:05.948Z,1.80
2023-02-06T04:39:08.027Z,1.80
2023-02-06T04:42:09.690Z,1.80
2023-02-06T04:45:11.444Z,1.80
2023-02-06T04:48:13.110Z,1.80
2023-02-06T04:51:14.881Z,1.80
2023-02-06T04:54:17.336Z,1.80
2023-02-06T04:57:19.090Z,1.80
2023-02-06T05:00:20.868Z,1.70
2023-02-06T05:03:23.670Z,1.70
2023-02-06T05:06:25.383Z,1.70
2023-02-06T05:09:27.213Z,1.70
2023-02-06T05:12:29.116Z,1.70
2023-02-06T05:15:30.787Z,1.70
2023-02-06T05:18:32.558Z,1.70
2023-02-06T05:21:34.253Z,1.70
2023-02-06T05:24:35.914Z,1.60
2023-02-06T05:27:37.576Z,1.60
2023-02-06T05:30:39.217Z,1.60
2023-02-06T05:33:40.858Z,1.60
2023-02-06T05:36:42.556Z,1.60
2023-02-06T05:39:46.217Z,1.60
2023-02-06T05:42:48.031Z,1.70
2023-02-06T05:45:49.732Z,1.70
2023-02-06T05:48:51.568Z,1.70
2023-02-06T05:51:53.316Z,1.60
2023-02-06T05:54:54.969Z,1.60
2023-02-06T05:57:56.720Z,1.60
2023-02-06T06:00:58.493Z,1.60
2023-02-06T06:04:02.224Z,1.60
2023-02-06T06:07:03.981Z,1.60
2023-02-06T06:10:06.794Z,1.70
2023-02-06T06:13:08.907Z,1.70
2023-02-06T06:16:10.787Z,1.80
2023-02-06T06:19:12.483Z,1.90
2023-02-06T06:22:14.119Z,1.90
2023-02-06T06:25:15.986Z,1.80
2023-02-06T06:28:17.738Z,1.80
2023-02-06T06:31:19.670Z,1.80
2023-02-06T06:34:21.781Z,1.80
2023-02-06T06:37:23.435Z,1.80
2023-02-06T06:40:25.112Z,1.80
2023-02-06T06:43:26.865Z,1.80
2023-02-06T06:46:28.832Z,1.80
2023-02-06T06:49:30.472Z,1.80
2023-02-06T06:52:32.183Z,1.80
2023-02-06T06:55:34.336Z,1.80
2023-02-06T06:58:36.316Z,1.80
2023-02-06T07:01:38.006Z,1.80
2023-02-06T07:04:39.920Z,1.70
2023-02-06T07:07:41.949Z,1.70
2023-02-06T07:10:43.613Z,1.70
2023-02-06T07:13:46.108Z,1.70
2023-02-06T07:16:47.808Z,1.70
2023-02-06T07:19:51.486Z,1.70
2023-02-06T07:22:53.570Z,1.60
2023-02-06T07:25:56.531Z,1.60
2023-02-06T07:29:00.265Z,1.60
2023-02-06T07:32:02.130Z,1.60
2023-02-06T07:35:05.126Z,1.60
2023-02-06T07:38:06.867Z,1.60
2023-02-06T07:41:08.560Z,1.60
2023-02-06T07:44:11.321Z,1.60
2023-02-06T07:47:14.517Z,1.60
2023-02-06T07:50:16.370Z,1.70
2023-02-06T07:53:18.133Z,1.70
2023-02-06T07:56:23.192Z,1.80
2023-02-06T07:59:25.088Z,1.70
2023-02-06T08:02:26.823Z,1.70
2023-02-06T08:05:28.570Z,1.80
2023-02-06T08:08:30.322Z,1.70
2023-02-06T08:11:32.628Z,1.70
2023-02-06T08:14:34.375Z,1.70
2023-02-06T08:17:36.216Z,1.70
2023-02-06T08:20:37.915Z,1.70
2023-02-06T08:23:40.203Z,1.60
2023-02-06T08:26:43.720Z,1.70
2023-02-06T08:29:45.541Z,1.70
2023-02-06T08:32:47.204Z,1.70
2023-02-06T08:35:52.331Z,1.70
2023-02-06T08:38:54.033Z,1.70
2023-02-06T08:41:55.874Z,1.70
2023-02-06T08:44:57.707Z,1.70
2023-02-06T08:47:59.498Z,1.60
2023-02-06T08:51:06.275Z,1.60
2023-02-06T08:54:11.849Z,1.60
2023-02-06T08:57:13.646Z,1.60
2023-02-06T09:00:39.065Z,1.50
2023-02-06T09:03:41.823Z,1.40
2023-02-06T09:06:54.849Z,1.40
2023-02-06T09:09:56.500Z,1.40
2023-02-06T09:12:58.140Z,1.40
2023-02-06T09:15:59.989Z,1.40
2023-02-06T09:19:02.473Z,1.40
2023-02-06T09:22:05.874Z,1.40
2023-02-06T09:25:30.502Z,1.50
2023-02-06T09:28:32.724Z,1.50
2023-02-06T09:31:40.828Z,1.60
2023-02-06T09:34:42.473Z,1.60
2023-02-06T09:37:44.254Z,1.60
2023-02-06T09:40:54.753Z,1.70
2023-02-06T09:44:13.584Z,1.80
2023-02-06T09:47:48.170Z,1.80
2023-02-06T09:51:08.568Z,2.00
2023-02-06T09:54:22.070Z,2.20
2023-02-06T09:58:11.225Z,2.40
2023-02-06T10:01:15.912Z,2.50
2023-02-06T10:05:14.688Z,2.50
2023-02-06T10:08:50.160Z,2.60
2023-02-06T10:11:57.165Z,2.60
2023-02-06T10:15:25.390Z,2.60
2023-02-06T10:18:37.098Z,2.70
2023-02-06T10:21:42.664Z,2.80
2023-02-06T10:24:53.901Z,2.90
2023-02-06T10:27:59.446Z,3.00
2023-02-06T10:31:01.261Z,3.00
2023-02-06T10:34:28.117Z,2.90
2023-02-06T10:38:07.459Z,2.90
2023-02-06T10:41:33.286Z,2.90
2023-02-06T10:45:01.413Z,3.00
2023-02-06T10:48:29.283Z,3.10
2023-02-06T10:51:44.401Z,3.20
2023-02-06T10:54:52.080Z,3.20
2023-02-06T10:58:06.716Z,3.30
2023-02-06T11:01:25.143Z,3.40
2023-02-06T11:04:35.874Z,3.50
2023-02-06T11:07:52.288Z,3.60
2023-02-06T11:10:55.301Z,3.60
2023-02-06T11:14:04.413Z,3.50
2023-02-06T11:17:06.132Z,3.50
2023-02-06T11:20:28.059Z,3.60
2023-02-06T11:23:31.645Z,3.70
2023-02-06T11:26:33.419Z,3.70
2023-02-06T11:29:39.818Z,3.70
2023-02-06T11:32:52.753Z,3.70
2023-02-06T11:36:05.601Z,3.60
2023-02-06T11:39:23.056Z,3.70
2023-02-06T11:42:25.029Z,3.70
2023-02-06T11:45:32.802Z,3.70
2023-02-06T11:48:37.975Z,3.70
2023-02-06T11:51:49.524Z,3.60
2023-02-06T11:54:54.453Z,3.50
2023-02-06T11:58:02.343Z,3.40
2023-02-06T12:01:23.792Z,3.40
2023-02-06T12:04:31.880Z,3.30
2023-02-06T12:08:03.593Z,3.30
2023-02-06T12:11:12.519Z,3.40
2023-02-06T12:14:42.282Z,3.40
2023-02-06T12:17:51.330Z,3.40
2023-02-06T12:21:05.091Z,3.50
2023-02-06T12:24:25.757Z,3.60
2023-02-06T12:27:39.357Z,3.70
2023-02-06T12:31:00.863Z,3.60
2023-02-06T12:34:19.719Z,3.60
2023-02-06T12:37:39.706Z,3.70
2023-02-06T12:40:47.387Z,3.70
2023-02-06T12:43:58.112Z,3.60
2023-02-06T12:47:11.393Z,3.50
2023-02-06T12:50:25.022Z,3.40
2023-02-06T12:53:42.313Z,3.40
2023-02-06T12:56:48.729Z,3.40
2023-02-06T12:59:58.323Z,3.30
2023-02-06T13:03:29.905Z,3.20
2023-02-06T13:06:53.352Z,3.20
2023-02-06T13:10:05.903Z,3.10
2023-02-06T13:13:23.260Z,3.10
2023-02-06T13:16:55.686Z,3.00
2023-02-06T13:20:02.732Z,2.90
2023-02-06T13:23:13.472Z,2.80
2023-02-06T13:26:15.115Z,2.80
2023-02-06T13:29:27.174Z,2.90
2023-02-06T13:32:43.377Z,2.80
2023-02-06T13:35:56.645Z,2.70
2023-02-06T13:39:23.203Z,2.70
2023-02-06T13:42:34.067Z,2.70
2023-02-06T13:46:14.842Z,2.70
2023-02-06T13:49:48.976Z,2.70
2023-02-06T13:53:14.005Z,2.70
2023-02-06T13:56:49.318Z,2.60
2023-02-06T14:00:21.420Z,2.50
2023-02-06T14:03:28.534Z,2.40
2023-02-06T14:06:47.743Z,2.30
2023-02-06T14:10:11.166Z,2.30
2023-02-06T14:13:48.173Z,2.20
2023-02-06T14:16:55.824Z,2.20
2023-02-06T14:20:36.460Z,2.30
2023-02-06T14:28:38.157Z,2.30
2023-02-06T14:31:58.000Z,2.30
2023-02-06T14:35:21.878Z,2.30
2023-02-06T14:39:22.558Z,2.30
2023-02-06T14:42:38.165Z,2.30
2023-02-06T14:45:43.982Z,2.30
2023-02-06T14:48:55.388Z,2.20
2023-02-06T14:51:57.547Z,2.10
2023-02-06T14:54:59.284Z,2.10
2023-02-06T14:58:01.842Z,2.10
2023-02-06T15:01:18.747Z,2.10
2023-02-06T15:04:27.154Z,2.10
2023-02-06T15:07:30.538Z,2.10
2023-02-06T15:10:37.425Z,2.10
2023-02-06T15:13:39.274Z,2.10
2023-02-06T15:16:49.088Z,2.00
2023-02-06T15:19:53.741Z,2.00
2023-02-06T15:23:11.670Z,2.00
2023-02-06T15:26:48.214Z,2.10
2023-02-06T15:29:50.939Z,2.10
2023-02-06T15:32:55.843Z,2.10
2023-02-06T15:35:59.600Z,2.00
2023-02-06T15:39:03.272Z,2.10
2023-02-06T15:42:05.084Z,2.10
2023-02-06T15:45:15.258Z,2.00
2023-02-06T15:48:23.601Z,2.00
2023-02-06T15:51:29.470Z,2.00
2023-02-06T15:54:34.515Z,2.00
2023-02-06T15:57:41.692Z,1.90
2023-02-06T16:00:43.437Z,1.90
2023-02-06T16:03:48.647Z,1.80
2023-02-06T16:07:06.718Z,1.80
2023-02-06T16:10:08.605Z,1.70
2023-02-06T16:13:15.932Z,1.70
2023-02-06T16:16:21.767Z,1.70
2023-02-06T16:20:02.145Z,1.70
2023-02-06T16:23:19.442Z,1.80
2023-02-06T16:26:24.679Z,1.70
2023-02-06T16:30:04.557Z,1.70
2023-02-06T16:33:20.913Z,1.70
2023-02-06T16:36:24.076Z,1.60
2023-02-06T16:39:25.772Z,1.60
2023-02-06T16:42:35.242Z,1.60
2023-02-06T16:45:36.998Z,1.50
2023-02-06T16:48:38.631Z,1.40
2023-02-06T16:51:42.554Z,1.30
2023-02-06T16:54:45.704Z,1.30
2023-02-06T16:57:49.318Z,1.20
2023-02-06T17:00:51.384Z,1.20
2023-02-06T17:03:53.634Z,1.20
2023-02-06T17:06:55.530Z,1.20
2023-02-06T17:09:59.272Z,1.10
2023-02-06T17:13:00.931Z,1.10
2023-02-06T17:16:03.009Z,1.10
2023-02-06T17:19:04.770Z,1.10
2023-02-06T17:22:08.474Z,1.10
2023-02-06T17:25:10.174Z,1.10
2023-02-06T17:28:16.137Z,1.10
2023-02-06T17:31:27.036Z,1.10
2023-02-06T17:34:30.176Z,1.10
2023-02-06T17:37:31.854Z,1.10
2023-02-06T17:40:36.268Z,1.00
2023-02-06T17:43:38.271Z,1.00
2023-02-06T17:46:40.287Z,1.00
2023-02-06T17:49:42.079Z,1.00
2023-02-06T17:52:43.771Z,0.90
2023-02-06T17:55:45.658Z,0.90
2023-02-06T17:58:47.387Z,0.90
2023-02-06T18:01:49.177Z,0.90
2023-02-06T18:04:53.246Z,0.80
2023-02-06T18:07:55.075Z,0.70
2023-02-06T18:10:57.124Z,0.70
2023-02-06T18:13:59.008Z,0.60
2023-02-06T18:17:00.995Z,0.60
2023-02-06T18:20:03.088Z,0.60
2023-02-06T18:23:04.743Z,0.60
2023-02-06T18:26:37.573Z,0.50
2023-02-06T18:29:49.252Z,0.50
2023-02-06T18:32:51.605Z,0.50
2023-02-06T18:36:03.560Z,0.60
2023-02-06T18:39:08.224Z,0.60
2023-02-06T18:42:29.923Z,0.60
2023-02-06T18:45:34.470Z,0.50
2023-02-06T18:48:36.290Z,0.50
2023-02-06T18:51:38.024Z,0.50
2023-02-06T18:54:40.028Z,0.50
2023-02-06T18:57:41.987Z,0.40
2023-02-06T19:00:43.688Z,0.40
2023-02-06T19:03:45.460Z,0.40
2023-02-06T19:06:48.514Z,0.40
2023-02-06T19:09:50.221Z,0.40
2023-02-06T19:12:51.907Z,0.40
2023-02-06T19:16:06.232Z,0.40
2023-02-06T19:19:07.955Z,0.40
2023-02-06T19:22:09.666Z,0.50
2023-02-06T19:25:40.184Z,0.50
2023-02-06T19:28:43.000Z,0.60
2023-02-06T19:31:44.691Z,0.60
2023-02-06T19:34:46.504Z,0.60
2023-02-06T19:37:48.304Z,0.60
2023-02-06T19:40:50.186Z,0.70
2023-02-06T19:43:53.709Z,0.60
2023-02-06T19:46:55.952Z,0.70
2023-02-06T19:49:57.627Z,0.70
2023-02-06T19:52:59.271Z,0.70
2023-02-06T19:56:05.032Z,0.70
2023-02-06T19:59:28.470Z,0.70
2023-02-06T20:02:30.414Z,0.70
2023-02-06T20:05:33.952Z,0.70
2023-02-06T20:08:35.732Z,0.70
2023-02-06T20:11:37.492Z,0.70
2023-02-06T20:14:39.327Z,0.70
2023-02-06T20:17:41.506Z,0.70
2023-02-06T20:20:43.415Z,0.70
2023-02-06T20:23:45.077Z,0.80
2023-02-06T20:26:48.102Z,0.80
2023-02-06T20:29:49.820Z,0.80
2023-02-06T20:32:51.521Z,0.80
2023-02-06T20:35:53.213Z,0.80
2023-02-06T20:38:59.785Z,0.70
2023-02-06T20:42:01.775Z,0.70
2023-02-06T20:45:03.732Z,0.70
2023-02-06T20:48:05.597Z,0.70
2023-02-06T20:51:07.361Z,0.80
2023-02-06T20:54:11.399Z,0.80
2023-02-06T20:57:15.321Z,0.80
2023-02-06T21:00:17.320Z,0.80
2023-02-06T21:03:19.188Z,0.80
2023-02-06T21:06:21.226Z,0.80
2023-02-06T21:09:23.056Z,0.80
2023-02-06T21:12:24.749Z,0.80
2023-02-06T21:15:26.484Z,0.70
2023-02-06T21:18:30.722Z,0.80
2023-02-06T21:21:33.217Z,0.70
2023-02-06T21:24:34.977Z,0.60
2023-02-06T21:27:42.621Z,0.60
2023-02-06T21:30:44.350Z,0.60
2023-02-06T21:33:47.904Z,0.60
2023-02-06T21:36:50.233Z,0.60
2023-02-06T21:39:51.956Z,0.50
2023-02-06T21:42:53.612Z,0.50
2023-02-06T21:45:57.845Z,0.40
2023-02-06T21:48:59.945Z,0.30
2023-02-06T21:52:01.660Z,0.30
2023-02-06T21:55:06.722Z,0.30
2023-02-06T21:58:10.002Z,0.30
2023-02-06T22:01:20.811Z,0.40
2023-02-06T22:04:22.478Z,0.40
2023-02-06T22:07:24.218Z,0.40
2023-02-06T22:10:26.096Z,0.40
2023-02-06T22:13:27.877Z,0.40
2023-02-06T22:16:30.282Z,0.40
2023-02-06T22:19:32.000Z,0.40
2023-02-06T22:22:33.707Z,0.40
2023-02-06T22:25:35.499Z,0.30
2023-02-06T22:28:37.328Z,0.30
2023-02-06T22:31:43.323Z,0.30
2023-02-06T22:34:46.160Z,0.20
2023-02-06T22:37:47.845Z,0.10
2023-02-06T22:40:59.812Z,0.00
2023-02-06T22:44:01.550Z,-0.10
2023-02-06T22:47:03.384Z,-0.10
2023-02-06T22:50:06.538Z,-0.10
2023-02-06T22:53:29.613Z,-0.10
2023-02-06T22:56:36.938Z,-0.10
2023-02-06T22:59:38.870Z,-0.10
2023-02-06T23:02:41.016Z,-0.20
2023-02-06T23:05:42.627Z,-0.20
2023-02-06T23:08:44.930Z,-0.20
2023-02-06T23:11:47.231Z,-0.20
2023-02-06T23:14:48.860Z,-0.20
2023-02-06T23:17:50.494Z,-0.20
2023-02-06T23:21:00.978Z,-0.20
2023-02-06T23:24:04.656Z,-0.20
2023-02-06T23:27:06.323Z,-0.20
2023-02-06T23:30:08.479Z,-0.20
2023-02-06T23:33:10.475Z,-0.30
2023-02-06T23:36:16.928Z,-0.30
2023-02-06T23:39:19.899Z,-0.30
2023-02-06T23:42:21.570Z,-0.30
2023-02-06T23:45:23.208Z,-0.30
2023-02-06T23:48:24.835Z,-0.20
2023-02-06T23:51:27.099Z,-0.30
2023-02-06T23:54:28.784Z,-0.30
2023-02-06T23:57:30.501Z,-0.30
